Time;durP1;ratioP1;P1;durP2;ratioP2;P2;SDS_P1;SDS_P2;PMS_P1;PMS_P2;Temp;Humidity;BMP_temperature;BMP_pressure;BME280_temperature;BME280_humidity;BME280_pressure;Samples;Min_cycle;Max_cycle;Signal;HPM_P1;HPM_P2
2021/07/16 00:00:16;;;;;;;6.60;6.03;;;;;;;26.58;50.77;100043.30;1791350;77;21702;-81
2021/07/16 00:02:44;;;;;;;7.05;6.47;;;;;;;26.56;50.78;100038.70;1797413;77;20959;-82
2021/07/16 00:05:22;;;;;;;8.78;5.92;;;;;;;26.55;50.68;100043.09;1813129;77;21033;-84
2021/07/16 00:07:48;;;;;;;6.62;6.05;;;;;;;26.54;50.47;100042.83;1815365;77;20970;-80
2021/07/16 00:10:19;;;;;;;7.20;6.62;;;;;;;26.48;50.40;100038.02;1810958;77;20983;-82
2021/07/16 00:12:47;;;;;;;7.78;6.55;;;;;;;26.47;50.38;100037.77;1740654;80;21055;-81
2021/07/16 00:15:17;;;;;;;7.08;6.58;;;;;;;26.50;50.30;100039.88;1750108;80;21042;-82
2021/07/16 00:17:49;;;;;;;6.90;6.33;;;;;;;26.53;50.04;100043.95;1766049;80;21149;-84
2021/07/16 00:20:17;;;;;;;6.30;5.83;;;;;;;25.81;49.88;99929.95;1748072;80;21013;-81
2021/07/16 00:22:44;;;;;;;7.50;6.80;;;;;;;26.59;49.82;100050.41;1770957;79;21103;-82
2021/07/16 00:25:32;;;;;;;6.25;5.33;;;;;;;26.63;49.78;100051.17;1771578;80;20990;-84
2021/07/16 00:27:59;;;;;;;6.05;5.60;;;;;;;26.65;49.58;100044.28;1741720;80;21106;-82
2021/07/16 00:30:25;;;;;;;6.50;5.90;;;;;;;26.62;49.78;100039.44;1737063;81;21026;-81
2021/07/16 00:32:52;;;;;;;7.53;6.87;;;;;;;26.58;49.96;100046.03;1760477;80;20983;-84
2021/07/16 00:35:17;;;;;;;6.85;6.35;;;;;;;26.56;50.26;100046.06;1717905;81;21037;-80
2021/07/16 00:37:44;;;;;;;8.28;7.40;;;;;;;26.52;50.59;100048.62;1712249;83;21085;-84
2021/07/16 00:40:16;;;;;;;9.00;6.40;;;;;;;26.50;50.68;100047.28;1752738;80;21083;-83
2021/07/16 00:42:43;;;;;;;7.67;6.17;;;;;;;26.51;50.60;100048.34;1755793;80;21127;-82
2021/07/16 00:45:18;;;;;;;7.42;6.28;;;;;;;26.52;50.72;100049.16;1754469;80;21013;-83
2021/07/16 00:47:57;;;;;;;;;;;;;;;;;;;;;
2021/07/16 00:50:29;;;;;;;9.25;6.87;;;;;;;26.49;50.25;100053.31;1761025;80;21106;-81
2021/07/16 00:52:56;;;;;;;7.85;7.08;;;;;;;26.49;50.41;100049.77;1766610;80;21042;-83
2021/07/16 00:55:23;;;;;;;8.60;6.95;;;;;;;26.47;50.56;100043.80;1763738;80;21217;-81
2021/07/16 00:57:50;;;;;;;13.60;6.97;;;;;;;26.45;50.59;100044.10;1743365;81;21105;-82
2021/07/16 01:00:17;;;;;;;9.73;6.25;;;;;;;26.47;50.43;100034.23;1688872;84;22043;-84
2021/07/16 01:02:43;;;;;;;5.87;5.37;;;;;;;26.49;50.36;100035.55;1671204;84;21132;-81
2021/07/16 01:05:14;;;;;;;8.08;5.33;;;;;;;26.48;50.16;100036.64;1669604;84;21518;-82
2021/07/16 01:07:41;;;;;;;5.92;5.47;;;;;;;26.45;49.98;100037.27;1663738;84;21139;-83
2021/07/16 01:10:12;;;;;;;6.85;5.08;;;;;;;26.42;49.80;100045.49;1641701;86;21577;-82
2021/07/16 01:12:40;;;;;;;5.97;5.50;;;;;;;26.44;49.66;100034.27;1700303;83;21037;-81
2021/07/16 01:15:23;;;;;;;5.60;5.17;;;;;;;26.46;49.17;100036.70;1715987;83;21058;-88
2021/07/16 01:17:54;;;;;;;6.33;5.05;;;;;;;25.70;48.95;99912.70;1707495;83;21038;-82
2021/07/16 01:20:34;;;;;;;5.72;5.00;;;;;;;26.52;48.69;100030.85;1723999;83;21105;-84
2021/07/16 01:23:19;;;;;;;8.48;5.30;;;;;;;26.51;48.45;100031.16;1685837;83;21158;-84
2021/07/16 01:25:46;;;;;;;5.72;5.15;;;;;;;26.49;48.55;100027.34;1676730;85;21234;-84
2021/07/16 01:28:12;;;;;;;9.03;4.97;;;;;;;26.51;48.43;100029.22;1681196;84;20994;-83
2021/07/16 01:30:38;;;;;;;8.70;4.75;;;;;;;26.55;48.34;100022.59;1684925;85;21083;-81
2021/07/16 01:33:06;;;;;;;6.58;5.50;;;;;;;26.57;48.10;100010.80;1665878;84;21522;-81
2021/07/16 01:35:34;;;;;;;8.58;5.10;;;;;;;26.54;48.26;100019.06;1714143;83;21026;-83
2021/07/16 01:38:00;;;;;;;8.60;5.20;;;;;;;26.54;48.29;100020.96;1717309;82;21537;-81
2021/07/16 01:40:28;;;;;;;7.12;4.33;;;;;;;26.52;48.54;100018.55;1724938;82;21549;-82
2021/07/16 01:42:58;;;;;;;8.88;4.53;;;;;;;26.53;48.37;100008.42;1721600;82;20989;-81
2021/07/16 01:45:29;;;;;;;5.30;4.75;;;;;;;26.55;48.45;100003.46;1720157;82;21022;-83
2021/07/16 01:48:01;;;;;;;9.45;4.85;;;;;;;26.52;48.38;100004.06;1676538;84;21043;-82
2021/07/16 01:50:30;;;;;;;11.20;5.60;;;;;;;26.50;48.62;100006.29;1722384;82;21417;-84
2021/07/16 01:52:56;;;;;;;5.45;5.00;;;;;;;26.47;48.71;99997.34;1706981;82;21042;-83
2021/07/16 01:55:25;;;;;;;11.50;5.50;;;;;;;26.46;48.77;99996.52;1721088;82;21277;-83
2021/07/16 01:58:07;;;;;;;4.95;4.55;;;;;;;26.46;48.77;99991.05;1713819;82;21055;-88
2021/07/16 02:00:41;;;;;;;7.00;6.03;;;;;;;26.43;48.81;99984.84;1688296;82;21089;-82
2021/07/16 02:03:09;;;;;;;15.50;6.75;;;;;;;26.39;49.07;99989.27;1750503;80;20974;-84
2021/07/16 02:05:42;;;;;;;12.30;5.78;;;;;;;26.35;49.50;99990.99;1763419;80;21093;-81
2021/07/16 02:08:15;;;;;;;17.23;6.05;;;;;;;26.31;49.72;99993.52;1750131;80;21610;-81
2021/07/16 02:10:49;;;;;;;12.68;6.28;;;;;;;26.30;49.89;99986.45;1748966;82;20993;-85
2021/07/16 02:13:15;;;;;;;9.40;5.00;;;;;;;26.27;49.94;99984.88;1722785;81;21096;-81
2021/07/16 02:15:48;;;;;;;7.42;5.90;;;;;;;26.23;49.81;99975.91;1711415;82;21140;-85
2021/07/16 02:18:39;;;;;;;5.58;4.65;;;;;;;26.16;50.04;99977.41;1682288;83;21089;-85
2021/07/16 02:21:07;;;;;;;5.40;5.00;;;;;;;26.12;50.15;99967.64;1678959;83;21028;-83
2021/07/16 02:23:34;;;;;;;5.97;5.47;;;;;;;26.14;49.93;99976.34;1725361;81;21556;-82
2021/07/16 02:26:00;;;;;;;5.22;4.75;;;;;;;26.20;49.67;99975.16;1737535;81;21009;-83
2021/07/16 02:28:32;;;;;;;5.60;5.20;;;;;;;26.29;49.47;99980.72;1737386;81;21049;-83
2021/07/16 02:31:06;;;;;;;6.20;5.30;;;;;;;26.37;49.17;99977.30;1692521;82;20978;-83
2021/07/16 02:33:34;;;;;;;7.03;5.35;;;;;;;26.43;48.62;99978.02;1731594;81;21013;-84
2021/07/16 02:39:09;;;;;;;8.40;5.20;;;;;;;26.58;48.21;99972.80;1663620;81;21155;-82
2021/07/16 02:41:40;;;;;;;7.08;4.90;;;;;;;26.64;47.89;99974.91;1704641;82;21064;-84
2021/07/16 02:44:07;;;;;;;12.23;4.95;;;;;;;26.68;47.78;99980.81;1733689;81;21838;-83
2021/07/16 02:46:33;;;;;;;7.05;4.97;;;;;;;25.86;47.70;99844.97;1719666;82;21547;-82
2021/07/16 02:48:59;;;;;;;9.55;5.15;;;;;;;26.76;47.42;99982.82;1689058;83;20962;-84
2021/07/16 02:51:30;;;;;;;4.80;4.30;;;;;;;26.82;47.32;99984.89;1719495;83;21216;-85
2021/07/16 02:53:56;;;;;;;6.58;4.25;;;;;;;26.86;47.35;99983.19;1702973;83;21080;-83
2021/07/16 02:56:24;;;;;;;4.30;3.80;;;;;;;26.91;46.82;99982.26;1705542;83;21349;-82
2021/07/16 02:58:51;;;;;;;10.98;3.62;;;;;;;26.94;46.59;99981.09;1706687;82;21076;-84
2021/07/16 03:01:17;;;;;;;6.62;4.12;;;;;;;27.03;46.09;99985.82;1699354;82;21552;-84
2021/07/16 03:03:43;;;;;;;10.45;4.60;;;;;;;27.09;45.86;99985.42;1701693;82;21037;-82
2021/07/16 03:06:10;;;;;;;5.65;3.55;;;;;;;27.16;45.36;99984.44;1702529;82;21574;-83
2021/07/16 03:08:37;;;;;;;3.87;3.58;;;;;;;27.26;45.06;99986.73;1705518;82;21144;-83
2021/07/16 03:11:04;;;;;;;5.35;4.12;;;;;;;27.37;44.77;99986.74;1705237;82;21045;-82
2021/07/16 03:13:30;;;;;;;3.95;3.65;;;;;;;27.48;44.56;99989.48;1736763;81;20997;-83
2021/07/16 03:15:57;;;;;;;9.58;4.50;;;;;;;27.61;44.40;99986.98;1731889;81;21022;-84
2021/07/16 03:18:23;;;;;;;3.40;3.20;;;;;;;27.70;43.98;99985.92;1722207;81;21018;-82
2021/07/16 03:20:50;;;;;;;5.42;3.62;;;;;;;27.82;43.83;99995.50;1735145;81;21048;-83
2021/07/16 03:23:18;;;;;;;4.28;3.83;;;;;;;27.92;43.52;99996.09;1735976;81;21100;-82
2021/07/16 03:25:45;;;;;;;4.42;4.00;;;;;;;28.05;43.49;100001.25;1742459;81;21020;-82
2021/07/16 03:28:12;;;;;;;8.20;4.25;;;;;;;28.17;43.13;100002.59;1707110;82;20973;-83
2021/07/16 03:30:40;;;;;;;7.08;4.75;;;;;;;28.26;42.91;100004.83;1730291;81;21510;-83
2021/07/16 03:33:06;;;;;;;4.47;3.65;;;;;;;28.37;42.90;100012.19;1736322;81;21576;-81
2021/07/16 03:35:33;;;;;;;9.65;4.45;;;;;;;28.48;43.11;100012.16;1745732;81;21451;-83
2021/07/16 03:38:00;;;;;;;5.65;4.53;;;;;;;28.63;42.59;100013.16;1742709;80;21066;-83
2021/07/16 03:40:28;;;;;;;4.08;3.62;;;;;;;28.77;42.73;100021.82;1745353;80;21611;-83
2021/07/16 03:42:56;;;;;;;5.00;3.40;;;;;;;28.89;42.42;100023.37;1744329;80;21028;-83
2021/07/16 03:45:25;;;;;;;5.47;4.28;;;;;;;29.05;42.03;100027.29;1725772;82;21129;-83
2021/07/16 03:47:52;;;;;;;6.53;4.55;;;;;;;29.18;41.78;100031.06;1727533;82;21583;-83
2021/07/16 03:50:21;;;;;;;14.15;4.42;;;;;;;28.40;41.80;99896.45;1678530;84;21556;-83
2021/07/16 03:52:48;;;;;;;4.95;4.37;;;;;;;29.26;42.28;100032.99;1717938;82;21369;-84
2021/07/16 03:55:14;;;;;;;6.22;4.50;;;;;;;29.29;42.47;100031.53;1694920;82;21047;-82
2021/07/16 03:57:44;;;;;;;5.30;4.65;;;;;;;29.39;42.66;100027.69;1688295;83;20981;-82
2021/07/16 04:00:13;;;;;;;4.95;4.42;;;;;;;29.47;42.07;100030.42;1710673;82;21592;-82
2021/07/16 04:02:41;;;;;;;4.60;4.20;;;;;;;29.51;41.77;100029.20;1704607;83;21032;-81
2021/07/16 04:05:08;;;;;;;4.47;4.05;;;;;;;29.58;41.80;100034.23;1705319;82;21268;-82
2021/07/16 04:07:35;;;;;;;8.38;4.62;;;;;;;29.68;41.28;100026.45;1697236;83;21100;-82
2021/07/16 04:10:01;;;;;;;6.50;4.62;;;;;;;29.80;40.93;100038.20;1697031;83;21021;-84
2021/07/16 04:12:29;;;;;;;11.43;4.83;;;;;;;29.95;40.22;100034.69;1720594;81;21025;-82
2021/07/16 04:14:56;;;;;;;6.65;4.60;;;;;;;30.04;40.18;100039.03;1712838;81;21106;-83
2021/07/16 04:17:27;;;;;;;5.40;4.62;;;;;;;30.13;40.20;100032.72;1702963;83;21044;-83
2021/07/16 04:19:57;;;;;;;4.45;4.15;;;;;;;30.18;40.74;100036.68;1719722;81;21158;-82
2021/07/16 04:22:23;;;;;;;4.53;4.33;;;;;;;30.24;40.64;100040.86;1720831;81;21537;-84
2021/07/16 04:24:51;;;;;;;7.08;5.15;;;;;;;30.28;40.87;100041.23;1695909;82;21176;-82
2021/07/16 04:27:17;;;;;;;5.87;5.47;;;;;;;30.46;40.95;100043.41;1701408;82;21049;-85
2021/07/16 04:29:44;;;;;;;6.05;5.28;;;;;;;30.67;40.26;100039.92;1710940;82;21026;-83
2021/07/16 04:32:14;;;;;;;5.47;4.72;;;;;;;30.79;40.22;100037.83;1685237;82;21061;-81
2021/07/16 04:34:41;;;;;;;5.85;4.00;;;;;;;30.89;40.30;100039.39;1671028;85;21567;-83
2021/07/16 04:37:09;;;;;;;7.37;5.50;;;;;;;30.99;40.33;100040.43;1668127;85;21140;-81
2021/07/16 04:39:36;;;;;;;7.00;4.75;;;;;;;31.12;40.14;100043.50;1673792;85;21101;-84
2021/07/16 04:42:04;;;;;;;5.40;4.85;;;;;;;31.24;39.67;100032.55;1679925;85;21009;-84
2021/07/16 04:44:31;;;;;;;7.37;5.03;;;;;;;31.32;39.48;100025.94;1694933;84;21077;-85
2021/07/16 04:46:59;;;;;;;7.35;4.85;;;;;;;31.21;39.48;100026.91;1749750;80;21029;-84
2021/07/16 04:49:25;;;;;;;6.62;5.03;;;;;;;31.22;40.11;100037.59;1751277;82;21050;-85
2021/07/16 04:51:52;;;;;;;7.35;5.28;;;;;;;31.37;39.24;100034.81;1746742;80;21084;-82
2021/07/16 04:54:18;;;;;;;6.72;4.75;;;;;;;31.56;39.04;100046.75;1737353;80;21041;-82
2021/07/16 04:56:46;;;;;;;9.48;4.67;;;;;;;31.70;38.58;100043.70;1739455;81;21036;-83
2021/07/16 04:59:12;;;;;;;11.15;4.75;;;;;;;31.17;38.77;99960.70;1751823;81;21054;-84
2021/07/16 05:01:40;;;;;;;7.25;4.17;;;;;;;31.76;38.66;100041.00;1752941;80;21593;-83
2021/07/16 05:04:07;;;;;;;8.18;4.78;;;;;;;31.82;38.61;100042.97;1740317;80;21052;-83
2021/07/16 05:06:33;;;;;;;4.75;4.22;;;;;;;31.81;38.44;100042.72;1750194;80;21037;-82
2021/07/16 05:09:01;;;;;;;7.03;5.67;;;;;;;31.80;38.44;100036.41;1743077;80;21601;-82
2021/07/16 05:11:35;;;;;;;5.40;4.90;;;;;;;31.75;38.62;100041.33;1750830;80;21057;-82
2021/07/16 05:14:00;;;;;;;8.75;5.03;;;;;;;31.76;39.14;100040.17;1722713;82;21055;-84
2021/07/16 05:16:26;;;;;;;8.48;5.40;;;;;;;31.85;38.64;100045.61;1748427;80;21053;-85
2021/07/16 05:18:53;;;;;;;11.68;5.62;;;;;;;31.78;38.76;100044.22;1754427;81;21004;-84
2021/07/16 05:21:20;;;;;;;6.62;5.65;;;;;;;31.84;38.98;100042.05;1754268;80;21007;-85
2021/07/16 05:23:46;;;;;;;9.83;5.40;;;;;;;31.87;38.81;100049.63;1743741;80;21004;-83
2021/07/16 05:26:14;;;;;;;8.70;5.12;;;;;;;31.88;38.82;100049.88;1737024;82;21004;-84
2021/07/16 05:28:41;;;;;;;7.33;5.55;;;;;;;31.82;39.04;100041.02;1717281;83;21071;-84
2021/07/16 05:31:08;;;;;;;6.17;5.55;;;;;;;31.86;39.45;100043.10;1705473;83;21066;-84
2021/07/16 05:33:34;;;;;;;9.30;5.50;;;;;;;31.99;39.50;100040.03;1730597;80;21074;-84
2021/07/16 05:36:05;;;;;;;9.40;5.65;;;;;;;32.10;39.36;100039.62;1669283;83;21123;-83
2021/07/16 05:38:33;;;;;;;6.03;5.37;;;;;;;32.23;38.95;100031.63;1723367;82;21005;-85
2021/07/16 05:41:01;;;;;;;6.75;5.78;;;;;;;32.26;39.63;100030.13;1717497;82;21024;-83
2021/07/16 05:43:30;;;;;;;10.13;6.42;;;;;;;32.22;39.28;100031.97;1690548;83;21648;-84
2021/07/16 05:45:56;;;;;;;12.00;6.65;;;;;;;32.10;39.58;100039.62;1689917;83;21600;-83
2021/07/16 05:48:23;;;;;;;7.53;6.60;;;;;;;31.91;40.18;100042.31;1687264;83;21581;-83
2021/07/16 05:50:53;;;;;;;7.95;6.90;;;;;;;31.82;40.55;100042.39;1683993;83;21150;-82
2021/07/16 05:53:19;;;;;;;7.10;6.50;;;;;;;31.88;40.67;100043.56;1684251;83;21019;-84
2021/07/16 05:55:45;;;;;;;6.70;6.20;;;;;;;31.94;40.63;100047.13;1700264;82;21055;-84
2021/07/16 05:58:12;;;;;;;12.33;6.78;;;;;;;32.07;40.41;100054.10;1735003;82;21073;-82
2021/07/16 06:00:38;;;;;;;8.80;7.35;;;;;;;32.10;40.50;100050.09;1721955;82;21062;-83
2021/07/16 06:03:32;;;;;;;8.28;7.30;;;;;;;32.09;40.11;100051.81;1679535;84;21049;-90
2021/07/16 06:05:59;;;;;;;13.48;6.97;;;;;;;32.10;39.91;100057.54;1658943;84;21071;-84
2021/07/16 06:08:25;;;;;;;7.72;7.20;;;;;;;32.28;40.08;100060.34;1683275;84;21612;-86
2021/07/16 06:10:53;;;;;;;7.30;6.80;;;;;;;32.20;40.49;100061.25;1662002;85;20997;-86
2021/07/16 06:13:20;;;;;;;9.08;7.50;;;;;;;32.01;41.03;100058.99;1683688;84;20954;-87
2021/07/16 06:15:48;;;;;;;9.50;7.67;;;;;;;31.93;41.23;100055.73;1677273;84;21039;-93
2021/07/16 06:18:14;;;;;;;8.03;7.22;;;;;;;31.96;42.03;100049.55;1675038;84;21068;-86
2021/07/16 06:20:44;;;;;;;8.85;8.28;;;;;;;32.06;41.49;100051.92;1658795;84;21123;-87
2021/07/16 06:23:12;;;;;;;8.98;7.28;;;;;;;32.25;41.48;100043.13;1686868;83;21083;-82
2021/07/16 06:25:38;;;;;;;8.30;7.60;;;;;;;32.52;40.56;100049.92;1677951;83;21493;-81
2021/07/16 06:28:05;;;;;;;9.95;7.75;;;;;;;32.73;39.90;100054.56;1662620;85;21015;-83
2021/07/16 06:30:32;;;;;;;9.35;8.58;;;;;;;32.71;40.03;100054.91;1693728;83;21054;-81
2021/07/16 06:33:00;;;;;;;9.10;8.43;;;;;;;32.80;40.15;100053.42;1682435;84;21087;-80
2021/07/16 06:35:26;;;;;;;9.73;8.70;;;;;;;32.82;39.94;100062.74;1650154;86;21094;-83
2021/07/16 06:37:56;;;;;;;9.88;8.90;;;;;;;32.73;40.38;100055.36;1671357;85;21052;-82
2021/07/16 06:40:22;;;;;;;9.65;8.80;;;;;;;32.70;40.37;100053.31;1660178;85;21522;-79
2021/07/16 06:42:48;;;;;;;8.93;8.23;;;;;;;32.61;40.82;100049.03;1666225;85;21054;-82
2021/07/16 06:45:14;;;;;;;10.68;9.78;;;;;;;32.49;40.93;100049.80;1705858;83;21020;-93
2021/07/16 06:47:41;;;;;;;10.35;9.43;;;;;;;32.56;40.79;100054.19;1693812;83;21080;-82
2021/07/16 06:50:09;;;;;;;15.65;10.63;;;;;;;32.72;40.78;100055.16;1688266;83;20984;-84
2021/07/16 06:52:39;;;;;;;15.63;10.80;;;;;;;32.93;40.75;100056.98;1705312;83;21583;-83
2021/07/16 06:55:07;;;;;;;13.53;10.20;;;;;;;33.04;40.80;100055.36;1710583;83;21083;-83
2021/07/16 06:57:33;;;;;;;12.18;10.98;;;;;;;33.14;40.90;100056.29;1712135;83;21425;-83
2021/07/16 07:00:03;;;;;;;16.32;12.20;;;;;;;33.12;40.91;100064.70;1706186;83;21125;-80
2021/07/16 07:02:29;;;;;;;14.15;10.95;;;;;;;32.97;41.07;100057.89;1699938;83;21623;-80
2021/07/16 07:04:55;;;;;;;11.70;10.72;;;;;;;32.92;41.37;100058.13;1713348;83;21070;-81
2021/07/16 07:07:21;;;;;;;12.58;11.12;;;;;;;32.85;42.12;100055.95;1712850;83;21550;-81
2021/07/16 07:09:48;;;;;;;11.38;10.43;;;;;;;32.85;42.01;100053.75;1703038;83;21532;-80
2021/07/16 07:12:16;;;;;;;12.65;11.40;;;;;;;32.97;42.22;100053.76;1702206;82;21579;-81
2021/07/16 07:14:43;;;;;;;14.73;10.68;;;;;;;32.83;42.48;100049.16;1710811;83;21172;-81
2021/07/16 07:17:09;;;;;;;11.33;10.45;;;;;;;32.65;43.51;100047.22;1708326;83;21076;-83
2021/07/16 07:19:36;;;;;;;12.95;10.65;;;;;;;32.49;43.46;100047.05;1705020;83;21111;-80
2021/07/16 07:22:02;;;;;;;11.63;10.48;;;;;;;31.81;43.66;99951.79;1689389;84;21082;-80
2021/07/16 07:24:28;;;;;;;12.00;10.78;;;;;;;32.50;43.65;100052.81;1707385;83;21111;-81
2021/07/16 07:26:57;;;;;;;13.40;11.78;;;;;;;32.64;43.55;100051.91;1707421;83;21576;-82
2021/07/16 07:32:25;;;;;;;11.70;10.68;;;;;;;32.72;43.25;100056.53;1701108;83;21004;-83
2021/07/16 07:34:52;;;;;;;11.80;10.80;;;;;;;32.84;43.36;100059.06;1706306;83;21533;-83
2021/07/16 07:37:18;;;;;;;13.18;11.20;;;;;;;33.04;42.77;100057.30;1690448;84;21586;-83
2021/07/16 07:39:44;;;;;;;12.63;11.22;;;;;;;33.05;42.59;100062.48;1691079;84;21032;-81
2021/07/16 07:42:15;;;;;;;11.30;10.20;;;;;;;32.91;42.74;100064.81;1689513;84;21075;-82
2021/07/16 07:44:38;;;;;;;13.03;10.20;;;;;;;32.72;43.45;100059.84;1705165;81;21521;-81
2021/07/16 07:47:06;;;;;;;11.70;10.60;;;;;;;32.64;43.51;100067.09;1753346;81;21053;-81
2021/07/16 07:49:32;;;;;;;12.23;11.18;;;;;;;32.68;42.94;100065.27;1744545;81;21022;-81
2021/07/16 07:51:58;;;;;;;15.10;11.00;;;;;;;32.78;42.86;100068.94;1746502;81;21076;-81
2021/07/16 07:54:25;;;;;;;12.40;11.30;;;;;;;32.83;42.75;100065.72;1744489;81;21100;-80
2021/07/16 07:56:52;;;;;;;12.05;10.85;;;;;;;32.71;42.90;100070.08;1744055;81;20962;-83
2021/07/16 07:59:19;;;;;;;10.93;9.98;;;;;;;32.58;43.20;100074.78;1750182;81;21068;-84
2021/07/16 08:01:45;;;;;;;11.30;9.85;;;;;;;32.56;43.33;100070.73;1747420;81;21039;-84
2021/07/16 08:04:11;;;;;;;10.63;9.80;;;;;;;32.53;43.21;100060.38;1755347;81;20990;-81
2021/07/16 08:06:38;;;;;;;13.10;10.78;;;;;;;32.47;43.00;100062.56;1766780;81;21061;-82
2021/07/16 08:09:04;;;;;;;11.38;10.20;;;;;;;32.45;42.89;100065.44;1755921;81;20998;-81
2021/07/16 08:11:31;;;;;;;11.53;10.53;;;;;;;32.49;43.26;100069.91;1762558;81;20986;-82
2021/07/16 08:14:02;;;;;;;14.95;11.28;;;;;;;32.52;43.36;100062.92;1764067;81;21571;-82
2021/07/16 08:16:28;;;;;;;10.05;9.08;;;;;;;32.48;43.92;100062.00;1729248;81;20962;-81
2021/07/16 08:18:56;;;;;;;9.75;8.93;;;;;;;32.44;43.31;100062.44;1757012;81;20995;-82
2021/07/16 08:21:23;;;;;;;10.53;9.43;;;;;;;32.46;42.56;100060.96;1733590;81;21136;-82
2021/07/16 08:23:50;;;;;;;9.68;8.88;;;;;;;32.50;42.57;100056.95;1766342;81;21501;-80
2021/07/16 08:26:18;;;;;;;10.05;9.13;;;;;;;32.52;42.36;100062.34;1744682;81;21524;-80
2021/07/16 08:28:45;;;;;;;9.70;8.90;;;;;;;32.56;42.17;100059.70;1745200;81;21041;-82
2021/07/16 08:31:12;;;;;;;8.75;7.92;;;;;;;32.61;41.79;100062.27;1748040;81;21000;-82
2021/07/16 08:33:38;;;;;;;15.60;8.85;;;;;;;32.58;41.32;100065.71;1723933;81;20978;-85
2021/07/16 08:36:04;;;;;;;8.98;8.15;;;;;;;32.49;41.93;100058.08;1734703;81;21116;-81
2021/07/16 08:38:30;;;;;;;9.95;9.15;;;;;;;32.39;42.45;100056.00;1735151;81;20947;-81
2021/07/16 08:40:57;;;;;;;9.98;9.03;;;;;;;32.33;42.84;100062.89;1732958;81;21039;-80
2021/07/16 08:43:27;;;;;;;9.75;8.80;;;;;;;32.32;43.49;100064.02;1724870;81;21116;-83
2021/07/16 08:45:52;;;;;;;14.40;9.33;;;;;;;32.40;43.03;100063.72;1736013;81;21499;-80
2021/07/16 08:48:18;;;;;;;9.73;9.10;;;;;;;32.49;42.61;100065.77;1735977;82;21517;-81
2021/07/16 08:50:48;;;;;;;10.18;8.85;;;;;;;32.51;42.13;100065.44;1736490;81;21009;-80
2021/07/16 08:53:14;;;;;;;9.65;8.85;;;;;;;32.41;42.17;100069.45;1737300;81;20988;-81
2021/07/16 08:55:42;;;;;;;9.03;8.30;;;;;;;32.31;42.42;100075.42;1736246;81;21121;-80
2021/07/16 08:58:08;;;;;;;10.32;9.33;;;;;;;32.27;42.52;100075.84;1731929;82;21019;-82
2021/07/16 09:00:36;;;;;;;10.10;8.98;;;;;;;32.21;42.21;100078.02;1733380;81;21015;-82
2021/07/16 09:03:03;;;;;;;8.88;8.33;;;;;;;32.11;42.06;100079.84;1743869;81;21463;-82
2021/07/16 09:05:40;;;;;;;10.08;9.15;;;;;;;32.01;42.23;100079.09;1732390;82;21161;-83
2021/07/16 09:08:21;;;;;;;10.60;9.70;;;;;;;31.99;42.49;100075.06;1738654;81;21026;-82
2021/07/16 09:10:51;;;;;;;9.25;8.55;;;;;;;32.03;42.67;100072.47;1743409;81;21535;-82
2021/07/16 09:13:19;;;;;;;10.70;9.68;;;;;;;32.07;42.58;100073.40;1721027;81;21036;-81
2021/07/16 09:15:54;;;;;;;9.10;8.30;;;;;;;32.12;42.64;100071.81;1698907;84;21589;-82
2021/07/16 09:18:24;;;;;;;10.23;9.20;;;;;;;32.13;42.44;100072.03;1673470;83;21024;-81
2021/07/16 09:21:07;;;;;;;10.75;9.85;;;;;;;32.15;42.52;100068.36;1701826;84;20977;-83
2021/07/16 09:23:40;;;;;;;10.13;9.43;;;;;;;32.16;42.69;100066.64;1706136;84;21040;-83
2021/07/16 09:26:17;;;;;;;9.48;8.78;;;;;;;32.20;42.09;100062.63;1706357;83;21043;-82
2021/07/16 09:28:48;;;;;;;10.20;9.38;;;;;;;32.24;42.17;100060.00;1730151;81;21105;-81
2021/07/16 09:31:27;;;;;;;9.83;9.05;;;;;;;32.31;42.19;100067.94;1694382;84;21023;-81
2021/07/16 09:34:00;;;;;;;10.78;9.88;;;;;;;32.36;42.24;100067.73;1721200;81;21089;-82
2021/07/16 09:36:35;;;;;;;10.35;9.65;;;;;;;32.37;41.78;100059.67;1723370;81;21109;-81
2021/07/16 09:39:10;;;;;;;11.63;10.23;;;;;;;32.29;42.15;100063.34;1721196;81;21037;-81
2021/07/16 09:41:50;;;;;;;10.70;9.83;;;;;;;32.17;43.04;100067.44;1727877;81;21018;-82
2021/07/16 09:44:36;;;;;;;8.93;8.43;;;;;;;32.18;42.96;100064.34;1734784;81;21076;-82
2021/07/16 09:47:11;;;;;;;10.43;9.63;;;;;;;32.19;42.90;100060.46;1733257;81;21028;-82
2021/07/16 09:49:38;;;;;;;10.43;9.45;;;;;;;32.19;43.01;100059.62;1733690;81;21060;-81
2021/07/16 09:52:12;;;;;;;10.10;8.88;;;;;;;32.20;42.65;100059.88;1708105;82;21618;-82
2021/07/16 09:54:41;;;;;;;10.28;8.95;;;;;;;32.21;42.05;100065.61;1736228;81;21014;-82
2021/07/16 09:57:48;;;;;;;10.58;9.35;;;;;;;32.18;42.12;100058.04;1731148;81;21025;-81
2021/07/16 10:03:11;;;;;;;8.88;8.18;;;;;;;32.31;42.37;100052.78;1669115;81;21151;-79
2021/07/16 10:05:50;;;;;;;9.75;8.85;;;;;;;32.36;41.51;100058.08;1738170;81;21116;-83
2021/07/16 10:08:18;;;;;;;8.93;8.28;;;;;;;32.34;40.67;100053.48;1731643;81;21088;-82
2021/07/16 10:10:48;;;;;;;9.70;8.90;;;;;;;32.30;40.77;100053.91;1731321;81;21068;-82
2021/07/16 10:13:17;;;;;;;8.85;8.15;;;;;;;32.29;40.80;100057.83;1724488;81;21052;-83
2021/07/16 10:16:00;;;;;;;9.90;7.92;;;;;;;32.25;40.64;100059.67;1738347;81;21596;-84
2021/07/16 10:18:39;;;;;;;8.55;7.87;;;;;;;32.23;40.36;100056.45;1730431;81;21645;-82
2021/07/16 10:21:06;;;;;;;12.50;7.17;;;;;;;32.27;40.23;100053.23;1747965;81;21068;-82
2021/07/16 10:23:38;;;;;;;7.72;6.50;;;;;;;32.34;39.75;100045.77;1734604;81;21147;-82
2021/07/16 10:26:10;;;;;;;7.80;7.30;;;;;;;32.37;39.57;100045.88;1732120;81;20954;-84
2021/07/16 10:28:43;;;;;;;6.85;6.25;;;;;;;32.39;39.62;100040.03;1731392;81;20977;-83
2021/07/16 10:31:33;;;;;;;9.03;6.60;;;;;;;32.35;39.86;100040.49;1740113;82;21139;-83
2021/07/16 10:34:31;;;;;;;10.00;6.53;;;;;;;32.33;39.75;100046.34;1669202;84;21179;-82
2021/07/16 10:37:14;;;;;;;6.95;6.17;;;;;;;32.33;39.83;100044.17;1664060;83;21614;-83
2021/07/16 10:39:52;;;;;;;7.42;6.83;;;;;;;31.61;39.85;99934.20;1706146;83;21007;-85
2021/07/16 10:42:36;;;;;;;7.55;5.90;;;;;;;32.32;39.53;100043.34;1725174;82;21060;-83
2021/07/16 10:45:05;;;;;;;7.83;6.95;;;;;;;32.36;39.47;100031.05;1728380;80;21070;-82
2021/07/16 10:47:46;;;;;;;9.35;6.85;;;;;;;32.43;39.33;100028.54;1746452;80;21018;-82
2021/07/16 10:50:32;;;;;;;6.35;5.83;;;;;;;32.51;39.29;100025.44;1748715;80;21531;-82
2021/07/16 10:52:57;;;;;;;8.00;6.78;;;;;;;32.62;39.42;100019.72;1749689;80;21062;-82
2021/07/16 10:55:39;;;;;;;6.87;6.25;;;;;;;32.68;39.26;100021.13;1745674;80;20975;-81
2021/07/16 10:58:27;;;;;;;6.90;6.45;;;;;;;32.78;39.15;100014.33;1744646;82;20947;-81
2021/07/16 11:01:05;;;;;;;12.20;7.00;;;;;;;32.81;38.80;100012.23;1743452;82;21104;-82
2021/07/16 11:03:49;;;;;;;7.50;6.83;;;;;;;32.76;39.31;100012.50;1748054;82;21045;-82
2021/07/16 11:06:19;;;;;;;7.37;6.33;;;;;;;32.76;39.30;100009.73;1736094;82;21043;-80
2021/07/16 11:08:51;;;;;;;8.85;6.72;;;;;;;32.70;39.43;100009.16;1735686;82;20967;-83
2021/07/16 11:11:37;;;;;;;6.42;5.97;;;;;;;32.66;39.59;100005.46;1741037;82;21038;-83
2021/07/16 11:14:03;;;;;;;8.17;6.50;;;;;;;32.62;39.43;100018.34;1742666;81;21073;-82
2021/07/16 11:16:41;;;;;;;9.60;5.78;;;;;;;32.61;39.47;100013.17;1666583;84;21001;-82
2021/07/16 11:19:13;;;;;;;8.58;6.25;;;;;;;32.57;39.21;100013.08;1697398;83;21084;-82
2021/07/16 11:21:49;;;;;;;10.30;6.17;;;;;;;32.55;39.31;100018.08;1703922;83;21042;-83
2021/07/16 11:24:22;;;;;;;6.20;5.72;;;;;;;32.52;39.40;100009.93;1760784;80;21430;-82
2021/07/16 11:26:59;;;;;;;7.45;6.28;;;;;;;32.52;39.57;100006.37;1769500;80;21096;-81
2021/07/16 11:29:48;;;;;;;6.90;6.12;;;;;;;32.53;39.45;100001.89;1771365;80;21009;-82
2021/07/16 11:35:07;;;;;;;7.22;5.92;;;;;;;32.66;40.39;99994.42;1810536;76;23020;-82
2021/07/16 11:37:44;;;;;;;6.65;5.62;;;;;;;32.63;39.35;99998.48;1821490;77;21024;-83
2021/07/16 11:40:27;;;;;;;6.40;5.85;;;;;;;32.68;39.11;99996.29;1826586;77;21217;-82
2021/07/16 11:42:59;;;;;;;7.28;6.17;;;;;;;32.71;38.91;99997.55;1830355;77;21014;-81
2021/07/16 11:45:33;;;;;;;7.40;5.95;;;;;;;32.64;39.28;99995.93;1815904;77;20919;-81
2021/07/16 11:48:16;;;;;;;6.35;5.90;;;;;;;32.57;39.08;99986.29;1830843;77;20995;-82